sensor_id;sensor_type;location;lat;lon;timestamp;pressure;altitude;pressure_sealevel;temperature;humidity
11692;BME280;33659;42.672;23.354;2023-04-22T00:01:22;94044.69;;;11.76;63.50
11692;BME280;33659;42.672;23.354;2023-04-22T00:03:49;94047.50;;;11.67;63.83
11692;BME280;33659;42.672;23.354;2023-04-22T00:06:17;94039.81;;;11.58;65.08
11692;BME280;33659;42.672;23.354;2023-04-22T00:08:43;94045.34;;;11.53;65.35
11692;BME280;33659;42.672;23.354;2023-04-22T00:11:10;94036.56;;;11.46;65.75
11692;BME280;33659;42.672;23.354;2023-04-22T00:13:38;94039.25;;;11.49;65.41
11692;BME280;33659;42.672;23.354;2023-04-22T00:16:05;94040.88;;;11.54;64.43
11692;BME280;33659;42.672;23.354;2023-04-22T00:18:33;94039.91;;;11.62;64.75
11692;BME280;33659;42.672;23.354;2023-04-22T00:21:00;94036.09;;;11.75;65.14
11692;BME280;33659;42.672;23.354;2023-04-22T00:23:26;94034.97;;;11.92;65.31
11692;BME280;33659;42.672;23.354;2023-04-22T00:25:53;94030.03;;;12.06;64.97
11692;BME280;33659;42.672;23.354;2023-04-22T00:28:20;94028.44;;;12.21;64.42
11692;BME280;33659;42.672;23.354;2023-04-22T00:30:48;94040.53;;;12.29;64.19
11692;BME280;33659;42.672;23.354;2023-04-22T00:33:15;94044.47;;;12.39;63.89
11692;BME280;33659;42.672;23.354;2023-04-22T00:35:41;94039.38;;;12.46;63.69
11692;BME280;33659;42.672;23.354;2023-04-22T00:38:08;94045.09;;;12.52;63.57
11692;BME280;33659;42.672;23.354;2023-04-22T00:40:35;94046.38;;;12.61;63.29
11692;BME280;33659;42.672;23.354;2023-04-22T00:43:02;94049.41;;;12.63;62.89
11692;BME280;33659;42.672;23.354;2023-04-22T00:45:29;94044.09;;;12.60;62.92
11692;BME280;33659;42.672;23.354;2023-04-22T00:47:58;94050.38;;;12.55;63.21
11692;BME280;33659;42.672;23.354;2023-04-22T00:50:25;94049.75;;;12.42;64.05
11692;BME280;33659;42.672;23.354;2023-04-22T00:52:51;94049.22;;;12.33;64.50
11692;BME280;33659;42.672;23.354;2023-04-22T00:55:18;94049.38;;;12.21;65.18
11692;BME280;33659;42.672;23.354;2023-04-22T00:57:45;94052.94;;;12.13;65.59
11692;BME280;33659;42.672;23.354;2023-04-22T01:00:13;94049.94;;;12.11;65.81
11692;BME280;33659;42.672;23.354;2023-04-22T01:02:39;94049.94;;;12.11;66.08
11692;BME280;33659;42.672;23.354;2023-04-22T01:05:08;94056.38;;;12.17;66.11
11692;BME280;33659;42.672;23.354;2023-04-22T01:07:35;94053.19;;;12.24;65.87
11692;BME280;33659;42.672;23.354;2023-04-22T01:10:03;94056.25;;;12.29;65.61
11692;BME280;33659;42.672;23.354;2023-04-22T01:12:30;94054.81;;;12.32;64.99
11692;BME280;33659;42.672;23.354;2023-04-22T01:14:57;94049.59;;;12.32;65.37
11692;BME280;33659;42.672;23.354;2023-04-22T01:17:23;94045.91;;;12.36;65.15
11692;BME280;33659;42.672;23.354;2023-04-22T01:19:50;94050.06;;;12.37;64.84
11692;BME280;33659;42.672;23.354;2023-04-22T01:22:19;94050.47;;;12.39;64.71
11692;BME280;33659;42.672;23.354;2023-04-22T01:24:48;94053.00;;;12.36;64.55
11692;BME280;33659;42.672;23.354;2023-04-22T01:27:14;94046.22;;;12.31;64.64
11692;BME280;33659;42.672;23.354;2023-04-22T01:29:41;94047.63;;;12.29;64.67
11692;BME280;33659;42.672;23.354;2023-04-22T01:32:08;94049.44;;;12.25;65.04
11692;BME280;33659;42.672;23.354;2023-04-22T01:34:35;94052.38;;;12.23;64.93
11692;BME280;33659;42.672;23.354;2023-04-22T01:37:02;94038.34;;;12.12;65.11
11692;BME280;33659;42.672;23.354;2023-04-22T01:39:29;94044.41;;;12.16;65.03
11692;BME280;33659;42.672;23.354;2023-04-22T01:41:57;94043.66;;;12.15;65.22
11692;BME280;33659;42.672;23.354;2023-04-22T01:44:24;94041.38;;;12.14;65.17
11692;BME280;33659;42.672;23.354;2023-04-22T01:46:51;94049.94;;;12.11;65.42
11692;BME280;33659;42.672;23.354;2023-04-22T01:49:18;94040.47;;;12.06;65.30
11692;BME280;33659;42.672;23.354;2023-04-22T01:51:45;94043.78;;;12.03;65.42
11692;BME280;33659;42.672;23.354;2023-04-22T01:54:12;94030.75;;;11.87;65.68
11692;BME280;33659;42.672;23.354;2023-04-22T01:56:39;94043.75;;;11.84;66.20
11692;BME280;33659;42.672;23.354;2023-04-22T01:59:09;94049.91;;;11.76;66.50
11692;BME280;33659;42.672;23.354;2023-04-22T02:01:36;94046.81;;;11.70;67.04
11692;BME280;33659;42.672;23.354;2023-04-22T02:04:02;94052.47;;;11.72;67.14
11692;BME280;33659;42.672;23.354;2023-04-22T02:06:30;94046.53;;;11.75;66.91
11692;BME280;33659;42.672;23.354;2023-04-22T02:08:57;94052.63;;;11.79;66.90
11692;BME280;33659;42.672;23.354;2023-04-22T02:11:23;94053.81;;;11.82;66.81
11692;BME280;33659;42.672;23.354;2023-04-22T02:13:50;94047.22;;;11.88;66.47
11692;BME280;33659;42.672;23.354;2023-04-22T02:16:18;94054.38;;;11.91;66.21
11692;BME280;33659;42.672;23.354;2023-04-22T02:18:45;94050.59;;;11.88;65.69
11692;BME280;33659;42.672;23.354;2023-04-22T02:21:11;94039.72;;;11.86;65.74
11692;BME280;33659;42.672;23.354;2023-04-22T02:23:38;94052.06;;;12.05;65.15
11692;BME280;33659;42.672;23.354;2023-04-22T02:26:05;94040.84;;;12.05;65.28
11692;BME280;33659;42.672;23.354;2023-04-22T02:28:32;94049.22;;;12.14;65.08
11692;BME280;33659;42.672;23.354;2023-04-22T02:30:59;94047.09;;;12.19;65.21
11692;BME280;33659;42.672;23.354;2023-04-22T02:33:27;94045.66;;;12.22;65.08
11692;BME280;33659;42.672;23.354;2023-04-22T02:35:54;94049.09;;;12.26;64.86
11692;BME280;33659;42.672;23.354;2023-04-22T02:38:21;94045.78;;;12.29;64.91
11692;BME280;33659;42.672;23.354;2023-04-22T02:40:47;94054.06;;;12.31;65.05
11692;BME280;33659;42.672;23.354;2023-04-22T02:43:14;94053.38;;;12.34;65.18
11692;BME280;33659;42.672;23.354;2023-04-22T02:45:41;94056.47;;;12.40;65.10
11692;BME280;33659;42.672;23.354;2023-04-22T02:48:07;94063.28;;;12.44;64.98
11692;BME280;33659;42.672;23.354;2023-04-22T02:50:35;94068.94;;;12.46;64.83
11692;BME280;33659;42.672;23.354;2023-04-22T02:53:02;94068.25;;;12.50;64.86
11692;BME280;33659;42.672;23.354;2023-04-22T02:55:29;94063.00;;;12.50;64.48
11692;BME280;33659;42.672;23.354;2023-04-22T02:57:55;94069.34;;;12.48;64.64
11692;BME280;33659;42.672;23.354;2023-04-22T03:00:22;94069.34;;;12.48;64.56
11692;BME280;33659;42.672;23.354;2023-04-22T03:02:49;94061.56;;;12.52;64.50
11692;BME280;33659;42.672;23.354;2023-04-22T03:05:15;94066.44;;;12.54;64.23
11692;BME280;33659;42.672;23.354;2023-04-22T03:07:43;94054.53;;;12.37;64.51
11692;BME280;33659;42.672;23.354;2023-04-22T03:10:11;94061.06;;;12.08;65.43
11692;BME280;33659;42.672;23.354;2023-04-22T03:12:38;94068.91;;;11.88;66.23
11692;BME280;33659;42.672;23.354;2023-04-22T03:15:06;94071.38;;;11.81;66.48
11692;BME280;33659;42.672;23.354;2023-04-22T03:17:33;94075.56;;;11.70;66.44
11692;BME280;33659;42.672;23.354;2023-04-22T03:20:00;94069.88;;;11.49;67.07
11692;BME280;33659;42.672;23.354;2023-04-22T03:22:27;94068.88;;;11.37;67.68
11692;BME280;33659;42.672;23.354;2023-04-22T03:24:55;94072.44;;;11.29;68.12
11692;BME280;33659;42.672;23.354;2023-04-22T03:27:21;94069.41;;;11.27;68.50
11692;BME280;33659;42.672;23.354;2023-04-22T03:29:48;94075.53;;;11.35;68.13
11692;BME280;33659;42.672;23.354;2023-04-22T03:32:15;94069.78;;;11.45;67.93
11692;BME280;33659;42.672;23.354;2023-04-22T03:34:41;94079.50;;;11.60;67.48
11692;BME280;33659;42.672;23.354;2023-04-22T03:37:08;94081.91;;;11.69;67.23
11692;BME280;33659;42.672;23.354;2023-04-22T03:39:35;94089.25;;;11.79;66.99
11692;BME280;33659;42.672;23.354;2023-04-22T03:42:03;94082.25;;;11.83;67.16
11692;BME280;33659;42.672;23.354;2023-04-22T03:44:30;94085.28;;;11.85;66.66
11692;BME280;33659;42.672;23.354;2023-04-22T03:46:56;94094.22;;;11.84;66.77
11692;BME280;33659;42.672;23.354;2023-04-22T03:49:23;94090.31;;;11.78;66.68
11692;BME280;33659;42.672;23.354;2023-04-22T03:51:50;94083.41;;;11.70;66.13
11692;BME280;33659;42.672;23.354;2023-04-22T03:54:17;94097.09;;;11.79;65.67
11692;BME280;33659;42.672;23.354;2023-04-22T03:56:44;94098.84;;;11.75;65.83
11692;BME280;33659;42.672;23.354;2023-04-22T03:59:12;94093.97;;;11.74;65.77
11692;BME280;33659;42.672;23.354;2023-04-22T04:01:38;94105.44;;;11.69;65.74
11692;BME280;33659;42.672;23.354;2023-04-22T04:04:05;94098.97;;;11.63;66.02
11692;BME280;33659;42.672;23.354;2023-04-22T04:06:32;94099.22;;;11.58;66.01
11692;BME280;33659;42.672;23.354;2023-04-22T04:08:58;94103.28;;;11.55;66.13
11692;BME280;33659;42.672;23.354;2023-04-22T04:11:26;94100.41;;;11.60;66.39
11692;BME280;33659;42.672;23.354;2023-04-22T04:13:52;94104.44;;;11.74;66.32
11692;BME280;33659;42.672;23.354;2023-04-22T04:16:20;94105.19;;;11.90;65.89
11692;BME280;33659;42.672;23.354;2023-04-22T04:18:48;94100.69;;;12.06;65.14
11692;BME280;33659;42.672;23.354;2023-04-22T04:21:16;94105.72;;;12.15;64.65
11692;BME280;33659;42.672;23.354;2023-04-22T04:23:43;94100.84;;;12.33;64.46
11692;BME280;33659;42.672;23.354;2023-04-22T04:26:09;94105.19;;;12.44;63.81
11692;BME280;33659;42.672;23.354;2023-04-22T04:28:36;94107.59;;;12.53;63.42
11692;BME280;33659;42.672;23.354;2023-04-22T04:31:03;94120.56;;;12.65;63.45
11692;BME280;33659;42.672;23.354;2023-04-22T04:33:31;94118.94;;;12.80;63.42
11692;BME280;33659;42.672;23.354;2023-04-22T04:35:59;94113.91;;;12.91;63.08
11692;BME280;33659;42.672;23.354;2023-04-22T04:38:25;94123.47;;;13.02;62.89
11692;BME280;33659;42.672;23.354;2023-04-22T04:40:53;94123.53;;;13.06;62.29
11692;BME280;33659;42.672;23.354;2023-04-22T04:43:20;94126.22;;;13.10;62.23
11692;BME280;33659;42.672;23.354;2023-04-22T04:45:50;94131.47;;;13.10;62.15
11692;BME280;33659;42.672;23.354;2023-04-22T04:48:17;94136.44;;;13.15;62.07
11692;BME280;33659;42.672;23.354;2023-04-22T04:50:45;94140.91;;;13.14;62.00
11692;BME280;33659;42.672;23.354;2023-04-22T04:53:12;94143.59;;;13.18;62.94
11692;BME280;33659;42.672;23.354;2023-04-22T04:55:38;94145.25;;;13.26;63.28
11692;BME280;33659;42.672;23.354;2023-04-22T04:58:05;94141.66;;;13.34;63.15
11692;BME280;33659;42.672;23.354;2023-04-22T05:00:32;94147.41;;;13.43;62.01
11692;BME280;33659;42.672;23.354;2023-04-22T05:02:58;94139.19;;;13.45;61.73
11692;BME280;33659;42.672;23.354;2023-04-22T05:05:25;94145.88;;;13.65;62.04
11692;BME280;33659;42.672;23.354;2023-04-22T05:07:53;94142.16;;;13.66;61.63
11692;BME280;33659;42.672;23.354;2023-04-22T05:10:20;94154.31;;;13.78;60.71
11692;BME280;33659;42.672;23.354;2023-04-22T05:12:47;94142.22;;;13.70;60.96
11692;BME280;33659;42.672;23.354;2023-04-22T05:15:14;94149.91;;;13.82;61.24
11692;BME280;33659;42.672;23.354;2023-04-22T05:17:40;94154.19;;;13.94;60.44
11692;BME280;33659;42.672;23.354;2023-04-22T05:20:08;94159.56;;;14.01;60.28
11692;BME280;33659;42.672;23.354;2023-04-22T05:22:34;94156.28;;;14.07;60.08
11692;BME280;33659;42.672;23.354;2023-04-22T05:25:03;94159.28;;;14.09;59.61
11692;BME280;33659;42.672;23.354;2023-04-22T05:27:30;94159.38;;;14.17;59.21
11692;BME280;33659;42.672;23.354;2023-04-22T05:29:57;94158.41;;;14.28;59.22
11692;BME280;33659;42.672;23.354;2023-04-22T05:32:23;94160.38;;;14.35;58.28
11692;BME280;33659;42.672;23.354;2023-04-22T05:34:50;94159.28;;;14.36;57.67
11692;BME280;33659;42.672;23.354;2023-04-22T05:37:17;94160.75;;;14.33;58.11
11692;BME280;33659;42.672;23.354;2023-04-22T05:39:44;94163.94;;;14.20;57.82
11692;BME280;33659;42.672;23.354;2023-04-22T05:42:12;94162.00;;;13.90;58.63
11692;BME280;33659;42.672;23.354;2023-04-22T05:44:39;94162.22;;;13.55;58.89
11692;BME280;33659;42.672;23.354;2023-04-22T05:47:05;94166.66;;;13.28;60.32
11692;BME280;33659;42.672;23.354;2023-04-22T05:49:32;94165.41;;;13.22;60.65
11692;BME280;33659;42.672;23.354;2023-04-22T05:51:59;94157.97;;;13.05;60.62
11692;BME280;33659;42.672;23.354;2023-04-22T05:54:27;94164.81;;;12.90;61.29
11692;BME280;33659;42.672;23.354;2023-04-22T05:56:55;94146.22;;;12.76;61.51
11692;BME280;33659;42.672;23.354;2023-04-22T05:59:24;94161.97;;;12.79;61.79
11692;BME280;33659;42.672;23.354;2023-04-22T06:01:50;94158.94;;;12.96;61.51
11692;BME280;33659;42.672;23.354;2023-04-22T06:04:17;94160.81;;;13.19;60.99
11692;BME280;33659;42.672;23.354;2023-04-22T06:06:44;94163.41;;;13.35;60.34
11692;BME280;33659;42.672;23.354;2023-04-22T06:09:12;94163.56;;;13.45;60.20
11692;BME280;33659;42.672;23.354;2023-04-22T06:11:38;94154.75;;;13.57;59.96
11692;BME280;33659;42.672;23.354;2023-04-22T06:14:06;94153.47;;;13.70;59.18
11692;BME280;33659;42.672;23.354;2023-04-22T06:16:34;94160.00;;;13.80;58.97
11692;BME280;33659;42.672;23.354;2023-04-22T06:19:03;94161.91;;;13.83;59.26
11692;BME280;33659;42.672;23.354;2023-04-22T06:21:30;94156.84;;;13.97;58.87
11692;BME280;33659;42.672;23.354;2023-04-22T06:23:58;94159.63;;;14.04;58.95
11692;BME280;33659;42.672;23.354;2023-04-22T06:26:25;94163.84;;;14.13;58.78
11692;BME280;33659;42.672;23.354;2023-04-22T06:28:52;94161.25;;;14.16;58.86
11692;BME280;33659;42.672;23.354;2023-04-22T06:31:19;94170.59;;;14.14;59.10
11692;BME280;33659;42.672;23.354;2023-04-22T06:33:47;94165.72;;;14.12;59.27
11692;BME280;33659;42.672;23.354;2023-04-22T06:36:13;94150.25;;;14.07;59.01
11692;BME280;33659;42.672;23.354;2023-04-22T06:38:40;94176.03;;;14.24;58.88
11692;BME280;33659;42.672;23.354;2023-04-22T06:41:07;94169.25;;;14.23;58.74
11692;BME280;33659;42.672;23.354;2023-04-22T06:43:33;94176.03;;;14.24;58.46
11692;BME280;33659;42.672;23.354;2023-04-22T06:46:00;94172.94;;;14.19;58.77
11692;BME280;33659;42.672;23.354;2023-04-22T06:48:27;94169.03;;;14.09;58.93
11692;BME280;33659;42.672;23.354;2023-04-22T06:50:55;94165.72;;;14.12;59.05
11692;BME280;33659;42.672;23.354;2023-04-22T06:53:22;94175.13;;;14.17;58.94
11692;BME280;33659;42.672;23.354;2023-04-22T06:55:49;94166.63;;;14.23;58.78
11692;BME280;33659;42.672;23.354;2023-04-22T06:58:15;94149.41;;;14.26;58.36
11692;BME280;33659;42.672;23.354;2023-04-22T07:00:42;94173.03;;;14.52;58.14
11692;BME280;33659;42.672;23.354;2023-04-22T07:03:09;94161.78;;;14.55;57.78
11692;BME280;33659;42.672;23.354;2023-04-22T07:05:35;94180.31;;;14.62;57.66
11692;BME280;33659;42.672;23.354;2023-04-22T07:08:03;94173.19;;;14.63;57.75
11692;BME280;33659;42.672;23.354;2023-04-22T07:10:30;94175.06;;;14.62;57.74
11692;BME280;33659;42.672;23.354;2023-04-22T07:12:57;94179.56;;;14.66;58.02
11692;BME280;33659;42.672;23.354;2023-04-22T07:15:24;94179.97;;;14.68;57.84
11692;BME280;33659;42.672;23.354;2023-04-22T07:17:50;94179.56;;;14.66;57.99
11692;BME280;33659;42.672;23.354;2023-04-22T07:20:17;94167.25;;;14.70;57.47
11692;BME280;33659;42.672;23.354;2023-04-22T07:22:44;94173.34;;;14.77;57.75
11692;BME280;33659;42.672;23.354;2023-04-22T07:25:12;94178.22;;;14.79;57.92
11692;BME280;33659;42.672;23.354;2023-04-22T07:27:39;94177.94;;;14.84;57.69
11692;BME280;33659;42.672;23.354;2023-04-22T07:30:07;94168.22;;;14.88;57.17
11692;BME280;33659;42.672;23.354;2023-04-22T07:32:34;94175.16;;;15.07;56.75
11692;BME280;33659;42.672;23.354;2023-04-22T07:35:00;94172.25;;;15.15;56.21
11692;BME280;33659;42.672;23.354;2023-04-22T07:37:27;94164.00;;;15.17;55.64
11692;BME280;33659;42.672;23.354;2023-04-22T07:39:54;94179.22;;;15.38;55.32
11692;BME280;33659;42.672;23.354;2023-04-22T07:42:22;94183.13;;;15.51;54.63
11692;BME280;33659;42.672;23.354;2023-04-22T07:44:49;94168.16;;;15.59;54.50
11692;BME280;33659;42.672;23.354;2023-04-22T07:47:15;94173.19;;;15.75;54.63
11692;BME280;33659;42.672;23.354;2023-04-22T07:49:42;94169.44;;;15.72;54.79
11692;BME280;33659;42.672;23.354;2023-04-22T07:52:09;94159.19;;;15.63;54.87
11692;BME280;33659;42.672;23.354;2023-04-22T07:54:36;94172.81;;;15.76;55.02
11692;BME280;33659;42.672;23.354;2023-04-22T07:57:05;94172.03;;;15.68;55.39
11692;BME280;33659;42.672;23.354;2023-04-22T07:59:34;94164.88;;;15.65;54.22
11692;BME280;33659;42.672;23.354;2023-04-22T08:02:01;94161.88;;;15.67;53.41
11692;BME280;33659;42.672;23.354;2023-04-22T08:04:28;94157.03;;;15.73;52.33
11692;BME280;33659;42.672;23.354;2023-04-22T08:06:55;94167.22;;;15.81;51.63
11692;BME280;33659;42.672;23.354;2023-04-22T08:09:21;94158.59;;;15.81;51.99
11692;BME280;33659;42.672;23.354;2023-04-22T08:11:48;94159.72;;;15.80;52.03
11692;BME280;33659;42.672;23.354;2023-04-22T08:14:15;94162.38;;;15.87;51.63
11692;BME280;33659;42.672;23.354;2023-04-22T08:16:43;94157.50;;;15.89;51.22
11692;BME280;33659;42.672;23.354;2023-04-22T08:19:09;94160.22;;;16.00;51.03
11692;BME280;33659;42.672;23.354;2023-04-22T08:21:36;94146.69;;;16.01;50.45
11692;BME280;33659;42.672;23.354;2023-04-22T08:24:03;94150.53;;;16.14;50.00
11692;BME280;33659;42.672;23.354;2023-04-22T08:26:30;94149.81;;;16.17;49.34
11692;BME280;33659;42.672;23.354;2023-04-22T08:28:58;94146.34;;;16.10;49.16
11692;BME280;33659;42.672;23.354;2023-04-22T08:31:24;94149.75;;;16.10;49.16
11692;BME280;33659;42.672;23.354;2023-04-22T08:33:53;94152.03;;;16.12;49.33
11692;BME280;33659;42.672;23.354;2023-04-22T08:36:20;94142.25;;;16.16;49.26
11692;BME280;33659;42.672;23.354;2023-04-22T08:38:47;94138.50;;;16.17;49.07
11692;BME280;33659;42.672;23.354;2023-04-22T08:41:21;94146.03;;;16.18;48.86
11692;BME280;33659;42.672;23.354;2023-04-22T08:43:48;94135.81;;;16.06;49.00
11692;BME280;33659;42.672;23.354;2023-04-22T08:46:16;94131.63;;;16.02;49.53
11692;BME280;33659;42.672;23.354;2023-04-22T08:48:46;94128.28;;;16.05;49.55
11692;BME280;33659;42.672;23.354;2023-04-22T08:51:15;94120.38;;;16.05;49.15
11692;BME280;33659;42.672;23.354;2023-04-22T08:53:42;94125.31;;;16.13;49.24
11692;BME280;33659;42.672;23.354;2023-04-22T08:56:10;94121.59;;;16.21;48.99
11692;BME280;33659;42.672;23.354;2023-04-22T08:58:39;94109.91;;;16.22;48.62
11692;BME280;33659;42.672;23.354;2023-04-22T09:01:06;94114.50;;;16.33;48.06
11692;BME280;33659;42.672;23.354;2023-04-22T09:03:33;94108.09;;;16.30;48.04
11692;BME280;33659;42.672;23.354;2023-04-22T09:06:02;94112.28;;;16.42;48.10
11692;BME280;33659;42.672;23.354;2023-04-22T09:08:31;94117.19;;;16.47;46.84
11692;BME280;33659;42.672;23.354;2023-04-22T09:10:58;94102.50;;;16.46;46.58
11692;BME280;33659;42.672;23.354;2023-04-22T09:13:25;94117.19;;;16.43;46.10
11692;BME280;33659;42.672;23.354;2023-04-22T09:15:52;94113.06;;;16.46;46.04
11692;BME280;33659;42.672;23.354;2023-04-22T09:18:19;94110.03;;;16.47;45.94
11692;BME280;33659;42.672;23.354;2023-04-22T09:20:47;94111.94;;;16.50;46.48
11692;BME280;33659;42.672;23.354;2023-04-22T09:23:14;94106.69;;;16.54;46.40
11692;BME280;33659;42.672;23.354;2023-04-22T09:25:45;94105.19;;;16.57;45.10
11692;BME280;33659;42.672;23.354;2023-04-22T09:28:16;94088.56;;;16.45;45.26
11692;BME280;33659;42.672;23.354;2023-04-22T09:30:44;94104.03;;;16.54;45.07
11692;BME280;33659;42.672;23.354;2023-04-22T09:33:12;94090.44;;;16.38;45.31
11692;BME280;33659;42.672;23.354;2023-04-22T09:35:40;94087.06;;;16.44;45.64
11692;BME280;33659;42.672;23.354;2023-04-22T09:38:09;94093.13;;;16.59;45.64
11692;BME280;33659;42.672;23.354;2023-04-22T09:40:37;94093.22;;;16.70;45.37
11692;BME280;33659;42.672;23.354;2023-04-22T09:43:08;94069.09;;;16.71;44.46
11692;BME280;33659;42.672;23.354;2023-04-22T09:45:37;94095.94;;;17.02;44.51
11692;BME280;33659;42.672;23.354;2023-04-22T09:48:07;94077.09;;;17.11;44.38
11692;BME280;33659;42.672;23.354;2023-04-22T09:50:35;94088.03;;;17.23;44.28
11692;BME280;33659;42.672;23.354;2023-04-22T09:53:03;94090.31;;;17.36;42.51
11692;BME280;33659;42.672;23.354;2023-04-22T09:55:32;94083.16;;;17.43;42.23
11692;BME280;33659;42.672;23.354;2023-04-22T09:58:04;94074.09;;;17.48;43.11
11692;BME280;33659;42.672;23.354;2023-04-22T10:00:34;94091.44;;;17.35;44.91
11692;BME280;33659;42.672;23.354;2023-04-22T10:03:04;94086.50;;;17.12;43.71
11692;BME280;33659;42.672;23.354;2023-04-22T10:05:31;94104.91;;;16.76;43.41
11692;BME280;33659;42.672;23.354;2023-04-22T10:08:02;94102.47;;;16.39;43.51
11692;BME280;33659;42.672;23.354;2023-04-22T10:10:29;94099.31;;;16.05;43.60
11692;BME280;33659;42.672;23.354;2023-04-22T10:12:55;94084.94;;;15.91;43.63
11692;BME280;33659;42.672;23.354;2023-04-22T10:15:23;94070.41;;;15.60;43.94
11692;BME280;33659;42.672;23.354;2023-04-22T10:17:53;94083.69;;;15.75;43.80
11692;BME280;33659;42.672;23.354;2023-04-22T10:20:21;94077.25;;;15.68;43.98
11692;BME280;33659;42.672;23.354;2023-04-22T10:22:51;94082.94;;;15.78;43.36
11692;BME280;33659;42.672;23.354;2023-04-22T10:25:21;94088.72;;;15.97;43.19
11692;BME280;33659;42.672;23.354;2023-04-22T10:27:52;94088.78;;;16.08;42.20
11692;BME280;33659;42.672;23.354;2023-04-22T10:30:25;94075.28;;;16.20;41.73
11692;BME280;33659;42.672;23.354;2023-04-22T10:32:54;94064.03;;;16.23;41.29
11692;BME280;33659;42.672;23.354;2023-04-22T10:35:26;94082.09;;;16.29;41.12
11692;BME280;33659;42.672;23.354;2023-04-22T10:37:53;94070.09;;;16.42;41.59
11692;BME280;33659;42.672;23.354;2023-04-22T10:40:20;94074.66;;;16.45;43.01
11692;BME280;33659;42.672;23.354;2023-04-22T10:42:50;94063.00;;;16.60;41.86
11692;BME280;33659;42.672;23.354;2023-04-22T10:45:17;94072.13;;;16.81;40.55
11692;BME280;33659;42.672;23.354;2023-04-22T10:47:45;94063.13;;;16.89;39.62
11692;BME280;33659;42.672;23.354;2023-04-22T10:50:16;94060.13;;;17.01;39.44
11692;BME280;33659;42.672;23.354;2023-04-22T10:52:45;94061.28;;;17.18;39.25
11692;BME280;33659;42.672;23.354;2023-04-22T10:55:12;94060.91;;;17.44;37.88
11692;BME280;33659;42.672;23.354;2023-04-22T10:57:41;94054.88;;;17.65;36.80
11692;BME280;33659;42.672;23.354;2023-04-22T11:00:30;94058.63;;;17.85;36.65
11692;BME280;33659;42.672;23.354;2023-04-22T11:03:11;94059.34;;;18.04;35.30
11692;BME280;33659;42.672;23.354;2023-04-22T11:05:40;94047.63;;;18.05;35.49
11692;BME280;33659;42.672;23.354;2023-04-22T11:08:11;94061.94;;;18.18;35.98
11692;BME280;33659;42.672;23.354;2023-04-22T11:10:40;94060.00;;;18.36;35.44
11692;BME280;33659;42.672;23.354;2023-04-22T11:13:09;94052.75;;;18.51;35.28
11692;BME280;33659;42.672;23.354;2023-04-22T11:15:38;94061.44;;;18.52;35.09
11692;BME280;33659;42.672;23.354;2023-04-22T11:18:11;94058.03;;;18.48;37.24
11692;BME280;33659;42.672;23.354;2023-04-22T11:20:40;94063.00;;;18.42;38.30
11692;BME280;33659;42.672;23.354;2023-04-22T11:23:07;94055.47;;;18.33;39.23
11692;BME280;33659;42.672;23.354;2023-04-22T11:25:34;94075.13;;;18.25;40.17
11692;BME280;33659;42.672;23.354;2023-04-22T11:28:00;94070.25;;;18.20;40.31
11692;BME280;33659;42.672;23.354;2023-04-22T11:30:28;94087.22;;;18.16;39.60
11692;BME280;33659;42.672;23.354;2023-04-22T11:32:57;94091.41;;;18.13;39.62
11692;BME280;33659;42.672;23.354;2023-04-22T11:35:27;94087.66;;;17.96;40.33
11692;BME280;33659;42.672;23.354;2023-04-22T11:37:57;94090.69;;;17.95;41.26
11692;BME280;33659;42.672;23.354;2023-04-22T11:40:28;94079.00;;;17.81;41.38
11692;BME280;33659;42.672;23.354;2023-04-22T11:42:56;94103.13;;;17.69;41.02
11692;BME280;33659;42.672;23.354;2023-04-22T11:45:24;94080.13;;;17.55;40.95
11692;BME280;33659;42.672;23.354;2023-04-22T11:47:51;94086.94;;;17.60;42.07
11692;BME280;33659;42.672;23.354;2023-04-22T11:50:21;94093.72;;;17.47;42.75
11692;BME280;33659;42.672;23.354;2023-04-22T11:52:49;94101.25;;;17.59;43.19
11692;BME280;33659;42.672;23.354;2023-04-22T11:55:20;94102.78;;;17.74;42.71
11692;BME280;33659;42.672;23.354;2023-04-22T11:57:53;94105.03;;;17.83;42.08
11692;BME280;33659;42.672;23.354;2023-04-22T12:00:21;94109.56;;;17.93;41.89
11692;BME280;33659;42.672;23.354;2023-04-22T12:02:57;94111.06;;;17.83;42.63
11692;BME280;33659;42.672;23.354;2023-04-22T12:05:35;94094.44;;;17.58;44.07
11692;BME280;33659;42.672;23.354;2023-04-22T12:08:05;94112.59;;;17.84;42.43
11692;BME280;33659;42.672;23.354;2023-04-22T12:10:38;94106.91;;;17.90;41.91
11692;BME280;33659;42.672;23.354;2023-04-22T12:13:06;94107.66;;;17.90;43.04
11692;BME280;33659;42.672;23.354;2023-04-22T12:15:40;94096.75;;;17.84;42.54
11692;BME280;33659;42.672;23.354;2023-04-22T12:18:07;94113.31;;;18.03;40.58
11692;BME280;33659;42.672;23.354;2023-04-22T12:20:34;94111.81;;;18.05;40.41
11692;BME280;33659;42.672;23.354;2023-04-22T12:23:01;94090.66;;;18.09;40.45
11692;BME280;33659;42.672;23.354;2023-04-22T12:25:28;94120.06;;;18.25;40.81
11692;BME280;33659;42.672;23.354;2023-04-22T12:27:59;94111.34;;;18.43;40.92
11692;BME280;33659;42.672;23.354;2023-04-22T12:30:26;94113.16;;;18.63;40.21
11692;BME280;33659;42.672;23.354;2023-04-22T12:32:53;94105.56;;;18.76;40.08
11692;BME280;33659;42.672;23.354;2023-04-22T12:35:20;94109.34;;;18.72;40.85
11692;BME280;33659;42.672;23.354;2023-04-22T12:37:47;94106.31;;;18.77;40.30
11692;BME280;33659;42.672;23.354;2023-04-22T12:40:13;94114.53;;;18.93;40.29
11692;BME280;33659;42.672;23.354;2023-04-22T12:42:40;94111.09;;;19.00;40.60
11692;BME280;33659;42.672;23.354;2023-04-22T12:45:09;94118.22;;;19.13;40.39
11692;BME280;33659;42.672;23.354;2023-04-22T12:47:36;94108.34;;;19.21;40.61
11692;BME280;33659;42.672;23.354;2023-04-22T12:50:04;94103.41;;;19.23;40.53
11692;BME280;33659;42.672;23.354;2023-04-22T12:52:33;94106.00;;;19.30;40.51